Aérodrome :
LOGIN :

S'inscrire | Disclaimer

   EN    FR    IT 

 










Légende :    VFR   VFR Marginal   IFR   IFR Intensif   IFR Très Intensif
Visi : 
Plafond : 
>= 8 km
>= 3000ft
5 à 8 km
1000 à 3000 ft
1500m à 5 km
500 à 1000 ft
800 à 1500m
200 à 500 ft
< 800m
< 200 ft
Symboles :   Orages  Brouillard  Fortes neiges  Fortes précipitations  Vent > 20 kt
SIGMETs :   Divers  Orages  Givrage  Turbulence  Onde Orograph.  Cendres Volcan.







- Altitude de l'aérodrome : 53 ft
- Code IATA : HAM


EDDH - Hamburg

DERNIER METAR :
  • 270550Z 27009KT 220V300 9999 FEW011 SCT015 14/11 Q1006 TEMPO BKN012

METARs EXPIRÉS :
  • 270520Z 26010KT 220V290 9999 FEW010 BKN015 13/10 Q1005 TEMPO BKN012
  • 270450Z 26011KT 230V290 9999 FEW010 BKN015 13/10 Q1005 TEMPO BKN012
  • 270420Z 25007KT 9999 SCT012 13/11 Q1005 TEMPO BKN012
  • 270350Z 26008KT 240V300 9999 FEW011 13/12 Q1005 TEMPO BKN012
  • 270320Z 25011KT 230V290 9999 FEW008 BKN010 BKN024 14/12 Q1005 BECMG BKN025

TAF TAF EDDH
Valide du 27 à 06h jusqu'au 28 à 12h UTC


270500Z 2706/2812 26010KT 9999 SCT030
PROB40
TEMPO 2706/2708 BKN013
PROB30
TEMPO 2708/2714 26015G25KT
BECMG 2717/2719 27004KT
BECMG 2806/2809 32009KT
Pas de NOTAMs connus pour ce terrain.



MET'MAP, la Météo Aéronautique d'un coup d'oeil ! - Copyright ORBIFLY Décembre 2007 - Disclaimer

ORBIFLY MET'MAP TEAM :

Programmation & Développement : Alexandra Zaïnal
Conception & Développement : Baudouin d'Aumeries
Co-Programmation & Développement : Marc-Olivier Méhu
Soutien technique & logistique : Manuel Goepfert

Contact : metmap@orbifly.com




SOURCES & CREDITS :

   NOAA